Time;durP1;ratioP1;P1;durP2;ratioP2;P2;SDS_P1;SDS_P2;PMS_P1;PMS_P2;Temp;Humidity;BMP_temperature;BMP_pressure;BME280_temperature;BME280_humidity;BME280_pressure;Samples;Min_cycle;Max_cycle;Signal;HPM_P1;HPM_P2
2021/06/11 04:52:04;;;;;;;7.03;6.35;;;;;;;17.52;91.04;99735.14;1835677;77;22698;-71
2021/06/11 04:58:22;;;;;;;8.55;6.65;;;;;;;17.83;89.61;99734.55;1828321;77;22312;-72
2021/06/11 05:00:50;;;;;;;8.90;7.40;;;;;;;17.93;88.75;99734.89;1774341;78;20966;-72
2021/06/11 05:03:19;;;;;;;6.40;5.80;;;;;;;18.06;87.87;99731.11;1772455;78;21526;-69
2021/06/11 05:05:47;;;;;;;7.20;6.30;;;;;;;18.16;86.18;99738.03;1785954;78;21048;-68
2021/06/11 05:08:14;;;;;;;7.10;5.87;;;;;;;18.20;86.25;99736.78;1791252;79;21520;-72
2021/06/11 05:10:41;;;;;;;6.47;5.87;;;;;;;18.29;84.90;99746.96;1802226;79;20855;-73
2021/06/11 05:13:08;;;;;;;6.60;6.00;;;;;;;18.33;84.60;99739.12;1794185;78;20935;-71
2021/06/11 05:15:37;;;;;;;6.80;6.10;;;;;;;18.38;83.85;99732.10;1777883;78;21110;-72
2021/06/11 05:18:09;;;;;;;8.28;6.30;;;;;;;18.38;83.90;99738.69;1776187;78;21044;-71
2021/06/11 05:20:38;;;;;;;9.03;5.62;;;;;;;18.40;83.00;99741.50;1774992;79;21484;-72
2021/06/11 05:23:07;;;;;;;5.75;5.15;;;;;;;18.38;82.67;99738.69;1782929;80;20966;-70
2021/06/11 05:25:37;;;;;;;5.87;5.28;;;;;;;18.37;82.77;99726.48;1782065;79;20946;-72
2021/06/11 05:28:04;;;;;;;9.00;5.67;;;;;;;18.44;82.90;99732.82;1775191;78;21106;-71
2021/06/11 05:30:31;;;;;;;7.08;5.70;;;;;;;18.55;82.11;99736.61;1776242;78;20923;-70
2021/06/11 05:33:01;;;;;;;7.22;5.28;;;;;;;18.63;81.43;99732.80;1771798;78;20946;-69
2021/06/11 05:35:28;;;;;;;5.28;4.78;;;;;;;18.69;81.31;99732.22;1776890;78;21595;-71
2021/06/11 05:37:58;;;;;;;6.08;5.25;;;;;;;18.76;79.90;99737.27;1761486;81;21494;-70
2021/06/11 05:40:25;;;;;;;7.92;4.80;;;;;;;18.74;79.47;99739.22;1779330;79;21094;-70
2021/06/11 05:42:53;;;;;;;5.87;5.22;;;;;;;18.75;79.86;99744.00;1806041;79;20960;-69
2021/06/11 05:45:22;;;;;;;5.87;5.28;;;;;;;18.77;79.13;99748.16;1792853;79;21025;-72
2021/06/11 05:47:49;;;;;;;7.22;5.22;;;;;;;18.75;78.95;99733.45;1779777;79;20947;-71
2021/06/11 05:50:17;;;;;;;8.18;5.15;;;;;;;18.76;78.90;99740.39;1800664;79;21531;-72
2021/06/11 05:52:44;;;;;;;5.83;5.25;;;;;;;18.83;78.30;99748.87;1795674;79;21083;-72
2021/06/11 05:55:14;;;;;;;5.58;5.08;;;;;;;18.96;77.42;99733.55;1793599;80;20922;-72
2021/06/11 05:57:42;;;;;;;5.00;4.50;;;;;;;19.13;76.16;99729.78;1790061;79;20934;-74
2021/06/11 06:00:12;;;;;;;5.62;4.55;;;;;;;19.24;75.22;99733.51;1786715;79;21648;-74
2021/06/11 06:02:39;;;;;;;5.85;4.60;;;;;;;19.38;74.35;99736.14;1769829;79;21510;-75
2021/06/11 06:05:08;;;;;;;5.42;4.28;;;;;;;19.51;73.22;99738.79;1770089;79;21937;-77
2021/06/11 06:07:41;;;;;;;4.37;3.98;;;;;;;19.64;72.57;99745.00;1763540;79;21002;-73
2021/06/11 06:10:10;;;;;;;4.60;3.50;;;;;;;19.78;71.47;99737.04;1783659;79;20850;-72
2021/06/11 06:12:38;;;;;;;3.87;3.58;;;;;;;19.96;70.85;99743.98;1786451;79;20918;-73
2021/06/11 06:15:06;;;;;;;3.98;3.58;;;;;;;20.26;69.49;99743.20;1785079;79;21492;-73
2021/06/11 06:17:36;;;;;;;4.75;4.20;;;;;;;20.57;68.24;99746.22;1778645;79;21027;-72
2021/06/11 06:20:08;;;;;;;4.75;3.77;;;;;;;20.93;66.76;99746.39;1769654;79;21560;-74
2021/06/11 06:22:35;;;;;;;4.45;4.08;;;;;;;21.26;64.50;99746.52;1757386;79;20986;-74
2021/06/11 06:25:04;;;;;;;5.55;3.40;;;;;;;21.47;63.98;99742.11;1751196;82;20911;-73
2021/06/11 06:27:31;;;;;;;4.35;3.10;;;;;;;21.56;63.31;99749.92;1751411;81;20899;-74
2021/06/11 06:29:58;;;;;;;3.60;3.33;;;;;;;21.56;62.50;99746.44;1751417;81;22113;-75
2021/06/11 06:32:30;;;;;;;3.40;3.05;;;;;;;21.42;61.95;99750.55;1762430;80;20892;-74
2021/06/11 06:34:58;;;;;;;4.80;3.65;;;;;;;21.27;62.37;99752.98;1777447;80;20895;-74
2021/06/11 06:37:28;;;;;;;4.20;3.00;;;;;;;21.26;62.77;99750.00;1765244;79;21565;-73
2021/06/11 06:40:03;;;;;;;3.50;3.20;;;;;;;21.27;62.65;99751.66;1763693;79;21513;-72
2021/06/11 06:42:36;;;;;;;3.45;3.22;;;;;;;21.23;62.57;99749.00;1756275;80;21151;-73
2021/06/11 06:45:05;;;;;;;4.42;3.15;;;;;;;21.32;62.61;99745.05;1771989;78;21811;-72
2021/06/11 06:47:34;;;;;;;3.60;3.20;;;;;;;21.32;62.61;99745.05;1773892;80;20990;-71
2021/06/11 06:50:03;;;;;;;3.75;3.00;;;;;;;21.46;62.40;99751.05;1772440;79;20946;-69
2021/06/11 06:52:30;;;;;;;4.90;3.27;;;;;;;21.70;61.48;99749.75;1780791;80;21065;-72
2021/06/11 06:54:57;;;;;;;4.15;3.30;;;;;;;21.79;61.11;99753.23;1779164;80;21071;-74
2021/06/11 06:57:25;;;;;;;4.08;3.08;;;;;;;21.83;61.11;99751.42;1766296;79;21576;-74
2021/06/11 06:59:52;;;;;;;3.62;3.00;;;;;;;22.41;60.19;99749.06;1758618;79;20931;-71
2021/06/11 07:02:19;;;;;;;3.80;3.25;;;;;;;22.41;60.19;99749.06;1770918;80;20903;-72
2021/06/11 07:04:46;;;;;;;3.72;3.02;;;;;;;23.01;58.57;99750.41;1780329;79;20942;-73
2021/06/11 07:07:16;;;;;;;4.42;2.72;;;;;;;23.69;56.33;99739.89;1786771;79;21113;-71
2021/06/11 07:09:42;;;;;;;4.60;2.77;;;;;;;24.14;55.34;99749.66;1795009;79;20965;-72
2021/06/11 07:12:11;;;;;;;2.20;2.10;;;;;;;24.36;53.46;99751.99;1801010;79;21092;-74
2021/06/11 07:14:40;;;;;;;3.08;2.20;;;;;;;24.34;52.27;99759.33;1778530;79;20927;-72
2021/06/11 07:17:10;;;;;;;2.55;2.35;;;;;;;24.14;52.00;99754.16;1762079;78;20876;-75
2021/06/11 07:19:37;;;;;;;2.58;1.80;;;;;;;23.86;52.16;99755.23;1763819;79;21169;-73
2021/06/11 07:22:07;;;;;;;1.85;1.75;;;;;;;23.59;52.41;99756.07;1772129;79;21580;-73
2021/06/11 07:24:36;;;;;;;2.45;2.25;;;;;;;23.28;52.62;99746.77;1765842;79;20997;-70
2021/06/11 07:27:04;;;;;;;1.65;1.60;;;;;;;23.08;53.35;99748.22;1765889;79;21009;-70
2021/06/11 07:29:35;;;;;;;1.70;1.60;;;;;;;22.98;53.56;99754.23;1785155;79;20990;-71
2021/06/11 07:32:04;;;;;;;2.35;1.30;;;;;;;22.88;52.92;99758.42;1800076;79;21094;-71
2021/06/11 07:34:34;;;;;;;1.75;1.60;;;;;;;22.77;52.79;99757.95;1800811;79;21009;-76
2021/06/11 07:37:02;;;;;;;1.40;1.30;;;;;;;22.61;52.22;99756.99;1800026;79;20910;-73
2021/06/11 07:39:29;;;;;;;2.22;1.50;;;;;;;22.43;53.16;99757.69;1801181;79;20903;-72
2021/06/11 07:41:56;;;;;;;2.33;1.22;;;;;;;22.36;53.75;99754.58;1798346;79;21461;-70
2021/06/11 07:44:24;;;;;;;2.00;1.90;;;;;;;22.40;53.71;99746.58;1800854;79;21064;-69
2021/06/11 07:46:51;;;;;;;1.65;1.55;;;;;;;22.42;54.19;99756.03;1794914;79;21010;-70
2021/06/11 07:49:20;;;;;;;1.37;1.20;;;;;;;22.41;53.37;99753.05;1781549;79;20915;-74
2021/06/11 07:51:48;;;;;;;1.60;1.47;;;;;;;22.37;53.89;99757.06;1772975;79;20966;-69
2021/06/11 07:54:18;;;;;;;1.25;1.25;;;;;;;22.37;53.72;99759.72;1772666;79;21017;-71
2021/06/11 07:56:54;;;;;;;2.52;1.50;;;;;;;22.28;54.09;99757.56;1777593;79;21094;-73
2021/06/11 07:59:21;;;;;;;2.55;1.37;;;;;;;22.24;54.08;99752.27;1791859;79;21073;-73
2021/06/11 08:01:49;;;;;;;1.67;1.50;;;;;;;22.17;54.37;99759.23;1784051;79;20989;-70
2021/06/11 08:04:16;;;;;;;2.12;1.50;;;;;;;22.12;54.71;99756.24;1791727;79;21599;-69
2021/06/11 08:06:44;;;;;;;1.72;1.62;;;;;;;22.09;54.69;99761.88;1768714;79;21028;-71
2021/06/11 08:09:14;;;;;;;2.92;1.42;;;;;;;22.13;55.19;99759.23;1762093;80;20954;-72
2021/06/11 08:11:41;;;;;;;1.50;1.40;;;;;;;22.31;54.72;99759.06;1792211;79;20943;-72
2021/06/11 08:14:08;;;;;;;1.17;1.17;;;;;;;22.48;53.99;99757.19;1794058;79;20990;-70
2021/06/11 08:16:35;;;;;;;1.40;1.30;;;;;;;22.63;53.43;99756.83;1793720;79;20943;-71
2021/06/11 08:19:03;;;;;;;1.12;1.12;;;;;;;22.74;53.14;99753.81;1790246;79;21451;-74
2021/06/11 08:21:30;;;;;;;1.00;1.00;;;;;;;22.83;52.55;99764.73;1800786;79;21156;-71
2021/06/11 08:23:57;;;;;;;2.05;1.35;;;;;;;22.86;51.78;99763.57;1801427;79;20938;-71
2021/06/11 08:26:27;;;;;;;4.70;1.52;;;;;;;22.81;51.79;99758.77;1795640;79;20923;-74
2021/06/11 08:28:57;;;;;;;4.35;1.20;;;;;;;22.75;51.54;99769.24;1790611;79;20907;-73
2021/06/11 08:31:24;;;;;;;2.35;1.40;;;;;;;22.69;51.44;99768.09;1793082;79;20989;-73
2021/06/11 08:33:51;;;;;;;1.20;1.10;;;;;;;22.73;51.56;99772.56;1785131;79;22365;-73
2021/06/11 08:36:20;;;;;;;0.90;0.90;;;;;;;22.67;51.40;99770.59;1794072;79;21564;-72
2021/06/11 08:38:48;;;;;;;1.22;1.12;;;;;;;22.55;51.48;99768.78;1789289;79;21009;-71
2021/06/11 08:41:19;;;;;;;0.80;0.80;;;;;;;22.44;51.83;99763.83;1780690;79;20986;-75
2021/06/11 08:43:47;;;;;;;1.10;1.10;;;;;;;22.40;52.73;99764.66;1790416;79;20958;-73
2021/06/11 08:46:16;;;;;;;5.17;1.00;;;;;;;22.43;52.19;99763.49;1721709;80;21599;-72
2021/06/11 08:48:46;;;;;;;1.95;1.00;;;;;;;22.46;52.20;99761.83;1746151;80;20986;-74
2021/06/11 08:51:13;;;;;;;1.47;1.37;;;;;;;22.49;52.23;99764.98;1779932;79;21045;-72
2021/06/11 08:53:40;;;;;;;1.37;1.27;;;;;;;22.46;52.37;99765.31;1791313;79;20938;-72
2021/06/11 08:56:09;;;;;;;2.55;1.50;;;;;;;22.29;53.11;99764.53;1789655;79;20975;-69
2021/06/11 08:58:39;;;;;;;2.98;1.27;;;;;;;22.12;54.03;99766.02;1775009;79;21088;-70
2021/06/11 09:01:07;;;;;;;2.70;1.15;;;;;;;21.98;54.60;99764.86;1777329;80;21011;-71
2021/06/11 09:03:48;;;;;;;1.10;1.10;;;;;;;21.86;54.47;99763.02;1782224;79;20943;-70
2021/06/11 09:06:17;;;;;;;1.22;1.12;;;;;;;21.80;54.50;99760.20;1778467;80;20980;-71
2021/06/11 09:08:57;;;;;;;1.67;1.55;;;;;;;21.84;54.13;99766.83;1781216;79;21597;-74
2021/06/11 09:11:27;;;;;;;1.90;1.45;;;;;;;21.76;54.29;99757.05;1777743;79;21742;-73
2021/06/11 09:14:16;;;;;;;1.50;1.40;;;;;;;21.77;54.91;99758.70;1789977;79;20989;-72
2021/06/11 09:16:51;;;;;;;1.87;1.77;;;;;;;21.83;55.08;99760.70;1786794;79;20910;-72
2021/06/11 09:19:19;;;;;;;1.60;1.50;;;;;;;21.87;54.88;99764.68;1774049;80;20931;-70
2021/06/11 09:21:49;;;;;;;1.65;1.55;;;;;;;21.95;54.77;99762.03;1776979;79;21018;-73
2021/06/11 09:24:23;;;;;;;1.52;1.30;;;;;;;22.03;55.04;99757.73;1776600;79;22097;-73
2021/06/11 09:27:11;;;;;;;1.52;1.20;;;;;;;22.19;54.88;99765.69;1776217;80;20888;-73
2021/06/11 09:29:42;;;;;;;2.70;1.37;;;;;;;22.35;54.11;99763.53;1772593;79;21023;-73
2021/06/11 09:32:26;;;;;;;4.92;1.65;;;;;;;22.48;53.10;99762.48;1767825;79;20855;-73
2021/06/11 09:35:03;;;;;;;1.10;1.10;;;;;;;22.60;52.25;99759.81;1800762;79;20926;-70
2021/06/11 09:37:34;;;;;;;1.42;1.32;;;;;;;22.74;51.95;99763.11;1779288;79;21119;-73
2021/06/11 09:40:12;;;;;;;1.72;1.27;;;;;;;22.78;51.83;99756.95;1774442;79;20987;-72
2021/06/11 09:42:44;;;;;;;1.30;1.30;;;;;;;22.85;51.81;99752.62;1780654;79;20936;-72
2021/06/11 09:45:15;;;;;;;1.70;1.22;;;;;;;22.87;51.76;99759.41;1773740;79;21533;-72
2021/06/11 09:47:54;;;;;;;9.40;1.95;;;;;;;22.83;51.85;99758.10;1762663;79;20966;-72
2021/06/11 09:50:25;;;;;;;2.85;1.35;;;;;;;22.71;52.82;99761.28;1773870;80;21134;-71
2021/06/11 09:53:09;;;;;;;4.15;1.57;;;;;;;22.58;53.36;99759.98;1782293;79;20919;-73
2021/06/11 09:55:49;;;;;;;1.37;1.30;;;;;;;22.47;53.72;99758.18;1782410;79;20888;-73
2021/06/11 09:58:27;;;;;;;1.72;1.62;;;;;;;22.38;53.80;99764.02;1787378;79;21529;-73
2021/06/11 10:00:59;;;;;;;1.92;1.82;;;;;;;22.37;54.17;99762.37;1768966;80;20986;-72
2021/06/11 10:03:37;;;;;;;1.57;1.50;;;;;;;22.36;54.20;99764.69;1800231;79;21259;-72
2021/06/11 10:06:06;;;;;;;3.15;1.57;;;;;;;22.32;53.84;99767.34;1788654;80;21006;-72
2021/06/11 10:08:37;;;;;;;2.20;1.75;;;;;;;22.25;53.39;99761.88;1790757;79;20972;-72
2021/06/11 10:11:06;;;;;;;2.92;1.60;;;;;;;22.25;53.62;99759.23;1791135;79;20983;-72
2021/06/11 10:13:33;;;;;;;2.72;1.50;;;;;;;22.40;54.42;99758.52;1790656;79;21054;-72
2021/06/11 10:16:11;;;;;;;1.72;1.62;;;;;;;22.65;52.89;99764.62;1790697;78;21105;-73
2021/06/11 10:18:38;;;;;;;1.47;1.37;;;;;;;22.78;51.66;99762.27;1769074;80;21005;-71
2021/06/11 10:21:06;;;;;;;1.32;1.22;;;;;;;22.81;51.36;99756.61;1789626;79;21469;-71
2021/06/11 10:23:34;;;;;;;1.40;1.30;;;;;;;22.80;51.52;99758.44;1789701;79;20911;-70
2021/06/11 10:26:02;;;;;;;1.75;1.65;;;;;;;22.74;51.87;99760.45;1790736;79;20848;-71
2021/06/11 10:28:48;;;;;;;4.03;1.52;;;;;;;22.71;52.14;99757.30;1790689;78;21119;-71
2021/06/11 10:31:22;;;;;;;1.55;1.45;;;;;;;22.74;52.80;99762.27;1790171;79;20915;-72
2021/06/11 10:33:51;;;;;;;1.65;1.55;;;;;;;22.82;52.61;99756.95;1790856;79;20919;-69
2021/06/11 10:36:34;;;;;;;1.85;1.70;;;;;;;22.90;52.47;99754.27;1790774;80;20942;-72
2021/06/11 10:39:12;;;;;;;1.62;1.52;;;;;;;23.04;52.28;99758.86;1790197;79;20996;-71
2021/06/11 10:42:12;;;;;;;1.65;1.25;;;;;;;23.22;52.07;99749.30;1782963;79;21055;-70
2021/06/11 10:44:49;;;;;;;1.40;1.30;;;;;;;23.38;51.55;99749.22;1788922;80;20999;-72
2021/06/11 10:47:24;;;;;;;1.57;1.47;;;;;;;23.48;51.67;99742.35;1789770;79;21556;-72
2021/06/11 10:50:04;;;;;;;1.45;1.30;;;;;;;23.56;50.93;99748.98;1791435;79;21450;-73
2021/06/11 10:52:53;;;;;;;1.17;1.17;;;;;;;23.53;50.56;99744.02;1795410;79;20882;-74
2021/06/11 10:55:26;;;;;;;1.85;1.32;;;;;;;23.41;50.25;99744.05;1793508;79;21107;-71
2021/06/11 10:58:01;;;;;;;1.30;1.20;;;;;;;23.26;50.97;99739.48;1793457;79;21209;-72
2021/06/11 11:00:33;;;;;;;;;;;;;;;23.15;51.49;99741.22;1784992;79;20872;-70
2021/06/11 11:03:02;;;;;;;2.12;1.40;;;;;;;23.01;51.75;99744.60;1781200;79;20079;-71
2021/06/11 11:05:37;;;;;;;2.33;1.50;;;;;;;22.93;51.66;99741.98;1770993;79;21053;-71
2021/06/11 11:08:06;;;;;;;3.02;1.55;;;;;;;22.80;52.39;99743.02;1777087;79;21490;-72
2021/06/11 11:10:47;;;;;;;2.08;1.47;;;;;;;22.76;52.56;99745.68;1769170;79;20888;-72
2021/06/11 11:13:28;;;;;;;1.60;1.50;;;;;;;22.69;52.57;99734.09;1752961;81;20998;-74
2021/06/11 11:15:57;;;;;;;4.60;1.60;;;;;;;22.71;53.09;99732.09;1780067;79;20927;-72
2021/06/11 11:18:36;;;;;;;2.65;1.40;;;;;;;22.78;53.39;99730.41;1769693;79;20959;-72
2021/06/11 11:21:37;;;;;;;4.40;1.60;;;;;;;22.86;53.83;99724.58;1777376;79;21699;-73
2021/06/11 11:24:08;;;;;;;3.15;1.82;;;;;;;22.91;53.94;99725.39;1767212;79;20986;-73
2021/06/11 11:26:51;;;;;;;1.25;1.22;;;;;;;22.97;53.34;99723.88;1788533;79;22175;-72
2021/06/11 11:29:20;;;;;;;2.67;1.35;;;;;;;22.83;52.72;99726.74;1751854;80;20986;-73
2021/06/11 11:31:48;;;;;;;1.87;1.50;;;;;;;22.63;53.36;99726.30;1751368;81;20939;-73
2021/06/11 11:34:16;;;;;;;3.00;1.55;;;;;;;22.49;53.79;99723.84;1779453;79;21582;-72
2021/06/11 11:36:43;;;;;;;1.90;1.70;;;;;;;22.36;53.64;99724.90;1799180;79;21437;-73
2021/06/11 11:39:11;;;;;;;2.75;1.50;;;;;;;22.29;54.39;99723.41;1773448;79;21036;-72
2021/06/11 11:41:38;;;;;;;1.87;1.77;;;;;;;22.36;54.79;99716.94;1781071;79;20938;-75
2021/06/11 11:44:05;;;;;;;1.62;1.60;;;;;;;22.49;54.56;99720.37;1772193;79;20931;-73
2021/06/11 11:46:32;;;;;;;3.85;1.50;;;;;;;22.61;54.28;99718.52;1781788;80;21048;-69
2021/06/11 11:49:01;;;;;;;8.73;2.05;;;;;;;22.65;54.51;99719.00;1782144;80;20872;-71
2021/06/11 11:51:29;;;;;;;1.80;1.70;;;;;;;22.63;54.17;99711.70;1769213;79;21049;-71
2021/06/11 11:53:56;;;;;;;1.90;1.80;;;;;;;22.60;53.99;99709.39;1714174;83;21026;-71
2021/06/11 11:56:23;;;;;;;2.20;1.50;;;;;;;22.54;54.46;99708.74;1714871;82;20971;-72
2021/06/11 11:58:52;;;;;;;1.85;1.67;;;;;;;22.52;54.44;99699.62;1713977;82;21053;-73
2021/06/11 12:01:19;;;;;;;1.60;1.50;;;;;;;22.52;54.50;99699.62;1729852;82;20901;-73
2021/06/11 12:03:46;;;;;;;2.40;2.20;;;;;;;22.57;55.13;99712.38;1729995;81;20979;-71
2021/06/11 12:06:13;;;;;;;2.22;2.12;;;;;;;22.58;54.79;99706.08;1721987;81;21599;-71
2021/06/11 12:08:41;;;;;;;2.72;1.60;;;;;;;22.61;55.04;99695.95;1733020;81;20995;-70
2021/06/11 12:11:08;;;;;;;2.02;1.82;;;;;;;22.69;54.65;99703.56;1732282;81;22134;-73
2021/06/11 12:13:35;;;;;;;4.30;2.02;;;;;;;22.71;54.05;99698.91;1731459;81;20967;-74
2021/06/11 12:16:05;;;;;;;1.72;1.62;;;;;;;22.69;54.50;99691.12;1746537;82;21506;-71
2021/06/11 12:18:32;;;;;;;3.35;1.85;;;;;;;22.68;54.99;99700.58;1737331;82;21094;-72
2021/06/11 12:21:03;;;;;;;3.20;2.22;;;;;;;22.68;55.64;99688.13;1789040;79;20910;-73
2021/06/11 12:23:30;;;;;;;1.80;1.67;;;;;;;22.73;55.68;99689.78;1787297;79;21094;-71
2021/06/11 12:25:58;;;;;;;4.50;1.50;;;;;;;22.81;54.55;99690.25;1785296;79;20915;-71
2021/06/11 12:28:25;;;;;;;3.52;1.75;;;;;;;22.80;54.10;99697.38;1789327;79;20939;-70
2021/06/11 12:30:55;;;;;;;1.90;1.75;;;;;;;22.78;53.31;99690.13;1782310;79;21513;-73
2021/06/11 12:33:23;;;;;;;2.75;1.87;;;;;;;22.72;53.43;99683.31;1767118;80;21433;-71
2021/06/11 12:35:51;;;;;;;2.72;1.47;;;;;;;22.73;53.32;99683.64;1773085;80;21709;-73
2021/06/11 12:38:18;;;;;;;2.00;1.90;;;;;;;22.76;53.47;99681.47;1776064;80;21485;-72
2021/06/11 12:40:48;;;;;;;2.08;1.90;;;;;;;22.78;52.87;99670.22;1782359;79;20876;-72
2021/06/11 12:43:19;;;;;;;1.70;1.60;;;;;;;22.75;53.54;99675.83;1779307;79;21025;-72
2021/06/11 12:45:45;;;;;;;7.33;2.10;;;;;;;22.71;54.49;99669.72;1776776;79;20975;-73
2021/06/11 12:48:12;;;;;;;2.85;2.20;;;;;;;22.66;54.97;99671.55;1767569;79;21959;-74
2021/06/11 12:50:41;;;;;;;2.98;2.45;;;;;;;22.58;55.17;99663.62;1775659;80;21625;-72
2021/06/11 12:53:10;;;;;;;2.50;2.30;;;;;;;22.53;55.23;99670.77;1769735;79;21001;-71
2021/06/11 12:55:49;;;;;;;10.25;3.95;;;;;;;22.45;54.62;99668.14;1776280;79;20974;-73
2021/06/11 12:58:17;;;;;;;2.75;2.35;;;;;;;22.35;55.21;99662.72;1777729;79;20988;-73
2021/06/11 13:00:45;;;;;;;4.80;2.15;;;;;;;22.30;55.86;99664.56;1777449;79;21058;-75
2021/06/11 13:03:12;;;;;;;2.22;2.12;;;;;;;22.34;56.57;99664.55;1778910;79;20844;-70
2021/06/11 13:05:40;;;;;;;2.17;2.08;;;;;;;22.38;56.60;99655.75;1772599;79;21026;-74
2021/06/11 13:08:16;;;;;;;2.22;2.12;;;;;;;22.43;55.93;99658.19;1781881;79;20929;-73
2021/06/11 13:10:43;;;;;;;2.72;2.17;;;;;;;22.35;55.53;99655.59;1790685;79;21025;-73
2021/06/11 13:13:12;;;;;;;2.45;2.12;;;;;;;22.21;56.30;99659.77;1773405;79;21940;-72
2021/06/11 13:15:40;;;;;;;4.20;2.12;;;;;;;22.15;56.14;99656.96;1784770;79;20974;-70
2021/06/11 13:18:07;;;;;;;2.80;2.12;;;;;;;22.07;56.04;99661.78;1792967;79;21520;-70
2021/06/11 13:20:35;;;;;;;2.02;1.80;;;;;;;22.00;56.90;99656.78;1794374;79;20922;-72
2021/06/11 13:23:05;;;;;;;2.08;1.90;;;;;;;21.98;57.67;99656.16;1767856;79;20892;-72
2021/06/11 13:25:33;;;;;;;2.70;1.82;;;;;;;21.94;56.98;99658.31;1718051;82;21604;-71
2021/06/11 13:28:00;;;;;;;2.08;1.90;;;;;;;21.89;56.35;99661.96;1720722;83;20927;-71
2021/06/11 13:30:29;;;;;;;2.45;2.22;;;;;;;21.81;56.02;99665.94;1738386;82;20921;-71
2021/06/11 13:32:56;;;;;;;1.92;1.82;;;;;;;21.65;56.61;99663.28;1744580;82;20987;-73
2021/06/11 13:35:24;;;;;;;2.20;2.10;;;;;;;21.53;57.44;99674.73;1742113;82;20947;-72
2021/06/11 13:37:53;;;;;;;2.27;2.08;;;;;;;21.44;57.15;99670.91;1732017;82;21758;-71
2021/06/11 13:40:22;;;;;;;2.33;2.22;;;;;;;21.31;57.88;99666.09;1738517;82;21049;-72
2021/06/11 13:42:49;;;;;;;2.40;2.20;;;;;;;21.24;58.39;99664.59;1746763;82;21533;-72
2021/06/11 13:45:17;;;;;;;2.30;2.20;;;;;;;21.22;58.17;99670.54;1744816;82;20908;-71
2021/06/11 13:47:47;;;;;;;3.33;2.10;;;;;;;21.21;58.14;99664.91;1747832;82;20967;-73
2021/06/11 13:50:18;;;;;;;5.40;2.27;;;;;;;21.18;58.54;99669.20;1743548;82;21524;-72
2021/06/11 13:52:45;;;;;;;2.37;2.20;;;;;;;21.15;59.08;99672.17;1727510;82;21057;-69
2021/06/11 13:55:15;;;;;;;5.72;2.33;;;;;;;21.17;59.25;99666.23;1724386;82;21383;-70
2021/06/11 13:57:42;;;;;;;1.98;1.87;;;;;;;21.17;59.25;99666.23;1788225;79;20966;-71
2021/06/11 14:00:16;;;;;;;2.22;2.12;;;;;;;21.18;59.06;99661.27;1772129;79;20879;-73
2021/06/11 14:02:43;;;;;;;2.05;1.80;;;;;;;21.23;58.83;99670.05;1787528;79;21055;-71
2021/06/11 14:05:11;;;;;;;1.80;1.70;;;;;;;21.24;58.73;99671.20;1784527;79;21000;-72
2021/06/11 14:07:42;;;;;;;3.05;1.80;;;;;;;21.27;58.05;99665.59;1785375;80;21615;-72
2021/06/11 14:10:10;;;;;;;6.60;2.22;;;;;;;21.29;57.51;99668.90;1786132;79;20895;-74
2021/06/11 14:12:39;;;;;;;1.82;1.72;;;;;;;21.27;57.29;99671.38;1766902;80;20999;-74
2021/06/11 14:15:08;;;;;;;3.08;1.77;;;;;;;21.17;57.48;99669.37;1783823;80;21931;-73
2021/06/11 14:17:56;;;;;;;3.15;1.80;;;;;;;21.06;58.02;99667.84;1784348;80;21458;-74
2021/06/11 14:20:24;;;;;;;2.15;1.90;;;;;;;20.98;58.39;99668.66;1783761;80;20994;-73
2021/06/11 14:22:51;;;;;;;2.22;1.92;;;;;;;20.90;58.92;99663.33;1787600;80;20940;-73
